Time;durP1;ratioP1;P1;durP2;ratioP2;P2;SDS_P1;SDS_P2;PMS_P1;PMS_P2;Temp;Humidity;BMP_temperature;BMP_pressure;BME280_temperature;BME280_humidity;BME280_pressure;Samples;Min_cycle;Max_cycle;Signal;HPM_P1;HPM_P2
2023/01/17 00:01:55;;;;;;;0.70;0.40;;;3.00;49.50;;;;;;5084758;28;20455;-72
2023/01/17 00:09:58;;;;;;;0.60;0.40;;;3.10;1.00;;;;;;5087024;28;20436;-72
2023/01/17 00:12:27;;;;;;;0.70;0.50;;;3.10;1.00;;;;;;5090975;28;20801;-73
2023/01/17 00:14:56;;;;;;;0.90;0.60;;;3.10;1.00;;;;;;5090459;28;20456;-73
2023/01/17 00:17:25;;;;;;;0.80;0.53;;;3.00;1.00;;;;;;5087564;28;20449;-72
2023/01/17 01:35:05;;;;;;;0.60;0.50;;;3.10;1.00;;;;;;5089468;28;20440;-73
2023/01/17 01:37:33;;;;;;;1.33;0.83;;;3.30;58.90;;;;;;5089690;28;20452;-72
2023/01/17 01:40:00;;;;;;;1.07;0.90;;;3.50;1.00;;;;;;5089781;28;20833;-73
2023/01/17 01:42:27;;;;;;;1.40;0.70;;;3.60;99.90;;;;;;5084834;28;20453;-73
2023/01/17 01:44:55;;;;;;;0.90;0.70;;;3.50;99.90;;;;;;5091809;28;20492;-73
2023/01/17 01:47:26;;;;;;;1.00;0.70;;;3.60;99.90;;;;;;5086163;28;20450;-72
2023/01/17 01:49:53;;;;;;;1.33;0.97;;;3.70;1.00;;;;;;5093640;28;20447;-73
2023/01/17 01:52:23;;;;;;;1.17;0.93;;;3.60;1.00;;;;;;5093516;28;20457;-72
2023/01/17 01:54:56;;;;;;;1.23;0.83;;;3.60;1.00;;;;;;5097564;28;20439;-73
2023/01/17 01:57:26;;;;;;;0.70;0.50;;;3.50;1.00;;;;;;5096778;28;20469;-72
2023/01/17 01:59:58;;;;;;;1.90;0.90;;;3.40;99.90;;;;;;5089329;28;20475;-73
2023/01/17 02:02:26;;;;;;;1.30;0.90;;;3.40;99.90;;;;;;5095311;28;20441;-72
2023/01/17 02:04:53;;;;;;;0.83;0.73;;;3.20;99.90;;;;;;5095140;28;20452;-72
2023/01/17 02:07:24;;;;;;;1.50;1.07;;;3.20;1.00;;;;;;5093231;28;20443;-72
2023/01/17 02:09:52;;;;;;;1.27;1.03;;;3.30;1.00;;;;;;5093898;28;20959;-72
2023/01/17 02:12:20;;;;;;;1.87;0.63;;;3.50;1.00;;;;;;5093092;28;20901;-73
2023/01/17 02:14:47;;;;;;;1.27;0.83;;;3.30;1.00;;;;;;5093500;28;20446;-72
2023/01/17 02:17:24;;;;;;;0.90;0.67;;;3.30;99.90;;;;;;5093565;28;20456;-72
2023/01/17 02:20:28;;;;;;;1.10;0.90;;;3.50;99.90;;;;;;5093406;28;20468;-72
2023/01/17 02:23:43;;;;;;;1.47;1.13;;;3.50;99.90;;;;;;5073351;28;20507;-72
2023/01/17 02:26:41;;;;;;;0.70;0.50;;;3.70;99.90;;;;;;5058386;28;20459;-72
2023/01/17 02:29:37;;;;;;;0.90;0.80;;;3.30;99.90;;;;;;5080970;28;20474;-72
2023/01/17 02:32:10;;;;;;;1.00;0.60;;;3.20;99.90;;;;;;5093404;28;20782;-72
2023/01/17 02:34:45;;;;;;;1.37;0.90;;;3.20;1.00;;;;;;5092433;28;20456;-72
2023/01/17 02:37:17;;;;;;;1.23;0.60;;;3.10;1.00;;;;;;5080786;28;20445;-72
2023/01/17 02:39:53;;;;;;;1.20;0.60;;;3.30;1.00;;;;;;5093608;28;20529;-72
2023/01/17 02:42:25;;;;;;;6.00;1.80;;;3.20;1.00;;;;;;5092929;28;20456;-72
2023/01/17 02:44:52;;;;;;;1.13;1.03;;;3.50;1.00;;;;;;5092112;28;20478;-72
2023/01/17 02:47:23;;;;;;;3.80;1.90;;;3.50;1.00;;;;;;5083382;28;20472;-72
2023/01/17 02:49:52;;;;;;;1.30;0.73;;;3.40;99.90;;;;;;5090840;28;20441;-72
2023/01/17 02:52:37;;;;;;;0.83;0.53;;;3.50;99.90;;;;;;5092605;28;20504;-73
2023/01/17 02:55:19;;;;;;;1.00;0.57;;;3.40;99.90;;;;;;5079990;28;20452;-72
2023/01/17 02:58:07;;;;;;;12.20;1.63;;;3.40;1.00;;;;;;5093167;28;20469;-72
2023/01/17 03:00:44;;;;;;;0.90;0.63;;;3.50;99.90;;;;;;5092405;28;20473;-72
2023/01/17 03:03:21;;;;;;;1.63;0.87;;;3.40;1.00;;;;;;5088963;28;20484;-72
2023/01/17 03:05:54;;;;;;;0.90;0.60;;;3.50;1.00;;;;;;5090825;28;20927;-72
2023/01/17 03:08:21;;;;;;;1.83;0.77;;;3.60;99.90;;;;;;5092296;28;20452;-72
2023/01/17 03:10:47;;;;;;;4.63;0.80;;;3.50;1.00;;;;;;5092634;28;20454;-72
2023/01/17 03:13:15;;;;;;;3.40;2.27;;;3.60;1.00;;;;;;5092928;28;20456;-72
2023/01/17 03:15:42;;;;;;;1.57;1.00;;;3.60;1.00;;;;;;5092134;28;20936;-72
2023/01/17 03:18:14;;;;;;;1.87;0.90;;;3.30;1.00;;;;;;5092401;28;20458;-72
2023/01/17 03:20:41;;;;;;;0.80;0.60;;;3.40;1.00;;;;;;5092865;28;20475;-72
2023/01/17 03:23:08;;;;;;;0.93;0.60;;;3.30;1.00;;;;;;5092709;28;20808;-72
2023/01/17 03:25:35;;;;;;;1.60;0.77;;;3.20;1.00;;;;;;5091138;28;20741;-73
2023/01/17 03:28:02;;;;;;;0.70;0.50;;;3.40;1.00;;;;;;5092258;28;20950;-72
2023/01/17 03:30:28;;;;;;;0.90;0.80;;;3.10;1.00;;;;;;5091677;28;20448;-72
2023/01/17 03:32:55;;;;;;;0.90;0.70;;;3.10;1.00;;;;;;5088191;28;20446;-72
2023/01/17 03:35:23;;;;;;;1.00;0.80;;;3.40;1.00;;;;;;5089900;28;20455;-73
2023/01/17 03:37:50;;;;;;;1.00;0.57;;;3.40;1.00;;;;;;5091082;28;20448;-73
2023/01/17 03:40:17;;;;;;;1.50;1.10;;;3.60;1.00;;;;;;5090277;28;20491;-73
2023/01/17 03:42:44;;;;;;;1.10;0.80;;;3.50;99.90;;;;;;5091933;28;20454;-72
2023/01/17 03:45:11;;;;;;;1.37;0.80;;;3.50;99.90;;;;;;5091311;28;20494;-73
2023/01/17 03:47:38;;;;;;;1.00;0.70;;;3.40;1.00;;;;;;5091554;28;20809;-72
2023/01/17 03:50:06;;;;;;;4.43;0.97;;;3.70;1.00;;;;;;5091735;28;20463;-73
2023/01/17 03:52:34;;;;;;;2.83;0.83;;;3.70;69.10;;;;;;5091154;28;20456;-72
2023/01/17 03:55:01;;;;;;;0.77;0.50;;;3.80;5.60;;;;;;5091095;28;20541;-72
2023/01/17 03:57:28;;;;;;;0.97;0.53;;;3.80;99.90;;;;;;5091236;28;20459;-73
2023/01/17 03:59:55;;;;;;;0.97;0.83;;;3.90;1.00;;;;;;5090787;28;20480;-73
2023/01/17 04:02:23;;;;;;;0.80;0.50;;;3.70;1.00;;;;;;5089791;28;20455;-73
2023/01/17 04:04:49;;;;;;;0.97;0.60;;;3.70;1.00;;;;;;5080447;28;20506;-73
2023/01/17 04:07:16;;;;;;;1.20;0.60;;;3.50;1.00;;;;;;5090293;28;20461;-73
2023/01/17 04:09:44;;;;;;;5.50;0.93;;;3.40;1.00;;;;;;5091036;28;20775;-73
2023/01/17 04:12:11;;;;;;;0.90;0.50;;;3.20;1.00;;;;;;5090699;28;20928;-73
2023/01/17 04:14:39;;;;;;;1.10;0.70;;;3.30;1.00;;;;;;5080747;28;20454;-72
2023/01/17 04:17:06;;;;;;;0.90;0.73;;;3.40;1.00;;;;;;5090586;28;20453;-73
2023/01/17 04:19:35;;;;;;;0.80;0.40;;;3.30;99.90;;;;;;5090163;28;20486;-73
2023/01/17 04:22:02;;;;;;;1.43;0.70;;;3.40;1.00;;;;;;5090776;28;20472;-73
2023/01/17 04:24:29;;;;;;;1.67;0.70;;;3.30;1.00;;;;;;5089790;28;20449;-74
2023/01/17 04:26:57;;;;;;;1.37;0.63;;;3.30;99.90;;;;;;5091233;28;20447;-73
2023/01/17 04:29:24;;;;;;;0.70;0.50;;;3.30;1.00;;;;;;5090409;28;20449;-73
2023/01/17 04:31:50;;;;;;;1.90;1.03;;;3.40;1.00;;;;;;5090775;28;20445;-73
2023/01/17 04:34:17;;;;;;;1.10;0.90;;;3.40;1.00;;;;;;5085322;28;20538;-73
2023/01/17 04:36:44;;;;;;;2.93;0.77;;;3.50;1.00;;;;;;5088006;28;20489;-73
2023/01/17 04:39:11;;;;;;;0.60;0.43;;;3.30;1.00;;;;;;5091107;28;20453;-72
2023/01/17 04:41:38;;;;;;;0.70;0.50;;;3.50;1.00;;;;;;5090402;28;20450;-72
2023/01/17 04:44:06;;;;;;;1.00;0.77;;;3.50;1.00;;;;;;5090149;28;20849;-72
2023/01/17 04:46:33;;;;;;;1.20;0.90;;;3.40;99.90;;;;;;5089501;28;20444;-72
2023/01/17 04:49:00;;;;;;;0.90;0.63;;;3.20;99.90;;;;;;5090529;28;20445;-73
2023/01/17 04:51:27;;;;;;;2.60;0.80;;;3.10;1.00;;;;;;5085416;28;20442;-71
2023/01/17 04:53:53;;;;;;;2.17;1.33;;;3.20;1.00;;;;;;5090562;28;20445;-72
2023/01/17 04:56:20;;;;;;;1.63;0.50;;;3.20;1.00;;;;;;5090233;28;20449;-72
2023/01/17 04:58:47;;;;;;;0.70;0.50;;;3.40;1.00;;;;;;5090839;28;20453;-73
2023/01/17 05:01:15;;;;;;;0.70;0.60;;;3.40;1.00;;;;;;5090477;28;20482;-72
2023/01/17 05:03:42;;;;;;;0.87;0.63;;;3.30;1.00;;;;;;5080969;28;20451;-72
2023/01/17 05:06:09;;;;;;;0.93;0.60;;;3.20;1.00;;;;;;5089161;28;20474;-72
2023/01/17 05:08:36;;;;;;;1.23;1.10;;;3.50;1.00;;;;;;5090510;28;20448;-72
2023/01/17 05:11:02;;;;;;;0.70;0.60;;;3.50;99.90;;;;;;5090512;28;20448;-72
2023/01/17 05:13:29;;;;;;;1.33;0.90;;;3.60;1.00;;;;;;5089842;28;21027;-72
2023/01/17 05:15:57;;;;;;;1.23;0.90;;;3.70;1.00;;;;;;5090489;28;20456;-72
2023/01/17 05:18:25;;;;;;;0.93;0.77;;;3.70;1.00;;;;;;5089559;28;20456;-72
2023/01/17 05:20:52;;;;;;;1.00;0.90;;;3.50;1.00;;;;;;5090216;28;20482;-72
2023/01/17 05:23:19;;;;;;;0.70;0.40;;;3.30;1.00;;;;;;5089761;28;20456;-72
2023/01/17 05:25:45;;;;;;;1.17;0.63;;;3.50;1.00;;;;;;5090239;28;20461;-72
2023/01/17 05:28:13;;;;;;;0.90;0.63;;;3.40;1.00;;;;;;5092288;28;20440;-72
2023/01/17 05:30:41;;;;;;;4.37;1.60;;;3.00;1.00;;;;;;5081877;28;20858;-72
2023/01/17 05:33:09;;;;;;;1.00;0.80;;;3.00;1.00;;;;;;5094587;28;20455;-72
2023/01/17 05:35:37;;;;;;;0.97;0.70;;;3.00;1.00;;;;;;5093514;28;20460;-72
2023/01/17 05:38:04;;;;;;;1.47;0.97;;;3.00;1.00;;;;;;5094273;28;20456;-72
2023/01/17 05:40:32;;;;;;;1.00;0.67;;;2.80;1.00;;;;;;5089631;28;20831;-72
2023/01/17 05:43:01;;;;;;;7.57;0.93;;;2.90;9.90;;;;;;5094440;28;20479;-72
2023/01/17 05:45:29;;;;;;;1.73;1.10;;;2.70;1.00;;;;;;5093879;28;20444;-72
2023/01/17 05:47:57;;;;;;;1.03;0.90;;;2.60;3.20;;;;;;5088889;28;20463;-72
2023/01/17 05:50:25;;;;;;;4.00;1.90;;;2.70;24.40;;;;;;5093405;28;20451;-72
2023/01/17 05:52:55;;;;;;;1.53;0.83;;;2.70;27.30;;;;;;5094083;28;20958;-72
2023/01/17 05:55:23;;;;;;;1.07;0.80;;;2.60;1.00;;;;;;5093057;28;20451;-72
2023/01/17 05:57:51;;;;;;;1.10;0.70;;;2.60;37.10;;;;;;5093744;28;20456;-72
2023/01/17 06:00:18;;;;;;;1.20;1.07;;;2.60;21.70;;;;;;5093280;28;20477;-72
2023/01/17 06:02:46;;;;;;;2.30;1.07;;;2.80;30.50;;;;;;5085143;28;20471;-72
2023/01/17 06:05:13;;;;;;;1.17;0.60;;;3.00;3.00;;;;;;5094308;28;20560;-73
2023/01/17 06:07:40;;;;;;;1.20;1.00;;;2.70;1.00;;;;;;5091633;28;20922;-73
2023/01/17 06:10:10;;;;;;;1.43;0.90;;;2.70;1.00;;;;;;5094579;28;20456;-73
2023/01/17 06:12:37;;;;;;;11.13;1.07;;;2.60;1.00;;;;;;5093733;28;20460;-73
2023/01/17 06:15:04;;;;;;;2.70;2.20;;;2.50;5.70;;;;;;5093853;28;20445;-72
2023/01/17 06:17:30;;;;;;;0.83;0.63;;;2.30;21.40;;;;;;5093845;28;20460;-73
2023/01/17 06:19:57;;;;;;;1.23;0.70;;;2.30;55.50;;;;;;5093929;28;20990;-73
2023/01/17 06:22:24;;;;;;;1.80;0.80;;;2.20;71.80;;;;;;5093942;28;20440;-72
2023/01/17 06:24:51;;;;;;;1.40;0.83;;;2.10;70.20;;;;;;5094038;28;20448;-73
2023/01/17 06:27:19;;;;;;;2.00;1.17;;;2.00;79.70;;;;;;5093684;28;20451;-73
2023/01/17 06:29:46;;;;;;;3.17;2.03;;;2.00;95.10;;;;;;5093917;28;20956;-73
2023/01/17 06:32:13;;;;;;;2.67;1.40;;;2.10;95.80;;;;;;5094207;28;20775;-73
2023/01/17 06:34:40;;;;;;;1.50;1.10;;;1.90;95.50;;;;;;5093480;28;20845;-73
2023/01/17 06:37:06;;;;;;;2.07;1.13;;;1.80;99.90;;;;;;5080428;28;20459;-73
2023/01/17 06:39:33;;;;;;;3.07;1.30;;;1.80;99.90;;;;;;5092966;28;20449;-73
2023/01/17 06:42:00;;;;;;;4.53;1.40;;;2.00;99.90;;;;;;5093818;28;20518;-73
2023/01/17 06:44:28;;;;;;;3.50;1.67;;;2.00;99.90;;;;;;5092558;28;20481;-73
2023/01/17 06:46:55;;;;;;;1.63;1.10;;;2.00;99.90;;;;;;5093956;28;20449;-73
2023/01/17 06:49:23;;;;;;;14.63;1.90;;;1.80;98.90;;;;;;5093121;28;20551;-73
2023/01/17 06:51:50;;;;;;;1.37;0.90;;;1.70;99.90;;;;;;5093717;28;20452;-73
2023/01/17 06:54:17;;;;;;;4.17;1.00;;;1.70;99.90;;;;;;5089721;28;20452;-73
2023/01/17 06:56:44;;;;;;;3.13;1.63;;;1.80;99.90;;;;;;5093670;28;20452;-73
2023/01/17 06:59:11;;;;;;;1.60;1.40;;;1.70;99.90;;;;;;5093709;28;20455;-72
2023/01/17 07:01:40;;;;;;;4.60;1.30;;;1.70;99.90;;;;;;5093192;28;20583;-72
2023/01/17 07:04:07;;;;;;;1.10;0.80;;;1.90;99.90;;;;;;5093280;28;20463;-73
2023/01/17 07:06:35;;;;;;;1.73;0.90;;;2.00;99.90;;;;;;5096822;28;20454;-74
2023/01/17 07:09:03;;;;;;;1.07;0.97;;;2.30;99.90;;;;;;5103419;28;20941;-72
2023/01/17 07:11:30;;;;;;;1.47;1.00;;;2.40;99.90;;;;;;5101835;28;20452;-72
2023/01/17 07:13:57;;;;;;;2.33;1.50;;;2.20;99.90;;;;;;5103565;28;20451;-73
2023/01/17 07:16:24;;;;;;;2.10;1.33;;;2.40;99.90;;;;;;5101300;28;20747;-73
2023/01/17 07:18:53;;;;;;;1.97;1.87;;;2.60;99.90;;;;;;5098188;28;20452;-73
2023/01/17 07:21:21;;;;;;;1.77;1.13;;;2.60;99.90;;;;;;5090139;28;20495;-73
2023/01/17 07:23:48;;;;;;;3.30;2.37;;;2.40;38.80;;;;;;5091055;28;20944;-72
2023/01/17 07:26:16;;;;;;;1.00;0.90;;;2.30;40.50;;;;;;5093793;28;20441;-75
2023/01/17 07:28:43;;;;;;;2.83;1.43;;;2.40;63.00;;;;;;5093605;28;20445;-75
2023/01/17 07:31:10;;;;;;;1.90;1.20;;;2.50;79.00;;;;;;5092578;28;20448;-72
2023/01/17 07:33:37;;;;;;;2.23;1.37;;;2.30;24.90;;;;;;5090832;28;20445;-73
2023/01/17 07:36:06;;;;;;;6.93;1.40;;;2.40;30.50;;;;;;5092020;28;20453;-73
2023/01/17 07:38:33;;;;;;;1.47;1.37;;;2.40;8.20;;;;;;5091373;28;20520;-74
2023/01/17 07:41:00;;;;;;;5.60;1.30;;;2.20;8.00;;;;;;5092053;28;20473;-71
2023/01/17 07:43:27;;;;;;;1.80;1.23;;;2.10;31.40;;;;;;5090555;28;20575;-78
2023/01/17 07:45:54;;;;;;;1.77;1.07;;;2.00;55.00;;;;;;5092124;28;20444;-73
2023/01/17 07:48:22;;;;;;;3.00;1.80;;;2.30;98.30;;;;;;5089401;28;20448;-73
2023/01/17 07:50:54;;;;;;;1.93;1.10;;;2.40;45.70;;;;;;5091698;28;20452;-73
2023/01/17 07:53:23;;;;;;;1.67;1.57;;;2.20;15.30;;;;;;5082443;28;20440;-73
2023/01/17 07:55:50;;;;;;;4.23;2.00;;;2.20;29.10;;;;;;5092530;28;20487;-73
2023/01/17 07:58:17;;;;;;;2.50;2.30;;;2.10;53.40;;;;;;5091862;28;20812;-73
2023/01/17 08:00:44;;;;;;;2.57;1.63;;;2.10;65.60;;;;;;5092578;28;20480;-73
2023/01/17 08:03:14;;;;;;;2.33;1.90;;;2.00;76.80;;;;;;5092285;28;20810;-73
2023/01/17 08:05:41;;;;;;;1.83;1.73;;;1.90;94.10;;;;;;5093029;28;20436;-72
2023/01/17 08:08:08;;;;;;;2.90;1.00;;;1.90;99.90;;;;;;5091918;28;20456;-72
2023/01/17 08:10:37;;;;;;;1.67;1.30;;;1.90;99.90;;;;;;5091259;28;20460;-73
2023/01/17 08:13:03;;;;;;;2.37;1.50;;;1.80;99.90;;;;;;5091789;28;20478;-71
2023/01/17 08:15:31;;;;;;;1.10;1.00;;;1.80;99.90;;;;;;5091208;28;20448;-73
2023/01/17 08:17:57;;;;;;;2.63;1.87;;;1.90;99.90;;;;;;5092216;28;20527;-73
2023/01/17 08:20:25;;;;;;;3.77;1.63;;;2.00;99.90;;;;;;5090763;28;20971;-74
2023/01/17 08:22:54;;;;;;;4.20;2.00;;;2.00;99.90;;;;;;5091284;28;21015;-72
2023/01/17 08:25:22;;;;;;;1.57;1.47;;;2.00;99.90;;;;;;5090739;28;20452;-73
2023/01/17 08:27:50;;;;;;;2.73;2.03;;;2.10;99.90;;;;;;5082542;28;20908;-72
2023/01/17 08:30:18;;;;;;;1.80;1.70;;;2.10;99.90;;;;;;5088783;28;20444;-72
2023/01/17 08:32:45;;;;;;;3.27;1.23;;;2.20;99.90;;;;;;5092078;28;20449;-72
2023/01/17 08:35:11;;;;;;;3.23;2.10;;;2.20;99.90;;;;;;5091618;28;20452;-73
2023/01/17 08:37:38;;;;;;;1.57;1.43;;;2.40;99.90;;;;;;5091310;28;20445;-70
2023/01/17 08:40:07;;;;;;;3.10;1.37;;;2.40;80.30;;;;;;5091598;28;20460;-75
2023/01/17 08:42:38;;;;;;;3.03;0.93;;;2.60;77.90;;;;;;5083515;28;20572;-73
2023/01/17 08:45:08;;;;;;;2.17;1.70;;;2.80;34.70;;;;;;5089447;28;21034;-73
2023/01/17 08:47:35;;;;;;;1.97;1.40;;;2.70;1.00;;;;;;5090968;28;20691;-78
2023/01/17 08:50:02;;;;;;;3.13;1.43;;;2.70;1.00;;;;;;5091455;28;20455;-79
2023/01/17 08:52:29;;;;;;;1.67;1.53;;;2.90;1.00;;;;;;5091056;28;20449;-80
2023/01/17 08:54:56;;;;;;;1.67;0.90;;;3.10;1.00;;;;;;5091379;28;20455;-80
2023/01/17 08:57:22;;;;;;;3.53;1.23;;;3.30;1.00;;;;;;5090567;28;20472;-73
2023/01/17 08:59:49;;;;;;;4.93;1.30;;;3.40;99.90;;;;;;5090085;28;20451;-73
2023/01/17 09:02:19;;;;;;;1.27;1.10;;;3.40;99.90;;;;;;5088674;28;20478;-72
2023/01/17 09:04:46;;;;;;;2.17;1.23;;;3.30;99.90;;;;;;5089610;28;20457;-72
2023/01/17 09:07:13;;;;;;;0.90;0.70;;;3.40;99.90;;;;;;5090579;28;20451;-74
2023/01/17 09:09:39;;;;;;;1.93;1.53;;;3.40;99.90;;;;;;5080380;28;20814;-73
2023/01/17 09:12:07;;;;;;;2.10;1.90;;;3.40;99.90;;;;;;5089667;28;20457;-73
2023/01/17 09:14:34;;;;;;;1.53;1.10;;;3.30;87.50;;;;;;5089652;28;20450;-73
2023/01/17 09:17:01;;;;;;;0.80;0.70;;;3.40;17.90;;;;;;5090609;28;20444;-73
2023/01/17 09:19:29;;;;;;;1.90;1.30;;;3.50;1.00;;;;;;5089981;28;20453;-74
2023/01/17 09:21:56;;;;;;;2.80;1.23;;;3.50;1.00;;;;;;5090571;28;20482;-73
2023/01/17 09:24:23;;;;;;;1.40;0.80;;;3.60;1.00;;;;;;5089582;28;20536;-74
2023/01/17 09:26:50;;;;;;;1.10;0.93;;;3.70;1.00;;;;;;5090589;28;20440;-73
2023/01/17 09:29:17;;;;;;;1.30;0.90;;;3.70;1.00;;;;;;5089864;28;20821;-72
2023/01/17 09:31:45;;;;;;;0.90;0.60;;;3.90;99.90;;;;;;5090777;28;20458;-73
2023/01/17 09:34:14;;;;;;;1.00;0.77;;;3.90;99.90;;;;;;5090730;28;20511;-73
2023/01/17 09:36:42;;;;;;;1.67;0.80;;;4.00;54.40;;;;;;5090933;28;20803;-73
2023/01/17 09:39:10;;;;;;;1.47;1.20;;;4.00;99.90;;;;;;5090153;28;20954;-74
2023/01/17 09:41:45;;;;;;;1.03;0.70;;;4.00;99.90;;;;;;5089797;28;21016;-74
2023/01/17 09:44:23;;;;;;;0.70;0.60;;;4.00;1.00;;;;;;5089341;28;20475;-74
2023/01/17 09:46:53;;;;;;;1.00;0.80;;;4.20;1.00;;;;;;5090046;28;20440;-74
2023/01/17 09:49:30;;;;;;;2.03;1.00;;;4.20;1.00;;;;;;5089269;28;20449;-74
2023/01/17 09:51:58;;;;;;;1.13;0.80;;;4.10;1.00;;;;;;5090306;28;20454;-74
2023/01/17 09:54:32;;;;;;;0.87;0.60;;;4.20;1.00;;;;;;5086138;28;20449;-75
2023/01/17 09:57:02;;;;;;;0.80;0.67;;;4.30;99.90;;;;;;5090682;28;20447;-73
2023/01/17 09:59:36;;;;;;;0.70;0.60;;;4.40;99.90;;;;;;5089433;28;20456;-73
2023/01/17 10:02:18;;;;;;;1.13;0.87;;;4.40;99.90;;;;;;5082475;28;20932;-73
2023/01/17 10:05:01;;;;;;;1.07;0.87;;;4.40;99.90;;;;;;5089783;28;20459;-73
2023/01/17 10:07:39;;;;;;;1.60;1.20;;;4.40;99.90;;;;;;5082814;28;20440;-73
2023/01/17 10:10:19;;;;;;;1.70;0.80;;;4.50;99.90;;;;;;5081887;28;20933;-74
2023/01/17 10:12:53;;;;;;;1.10;1.00;;;4.50;99.90;;;;;;5089866;28;20454;-74
2023/01/17 10:15:47;;;;;;;1.00;0.70;;;4.60;99.90;;;;;;5091961;28;20437;-73
2023/01/17 10:18:29;;;;;;;1.77;0.90;;;4.60;99.90;;;;;;5083973;28;20477;-73
2023/01/17 10:21:02;;;;;;;1.93;0.93;;;4.60;99.90;;;;;;5083388;28;20451;-73
2023/01/17 10:24:02;;;;;;;2.33;0.80;;;4.60;99.90;;;;;;5093160;28;20496;-71
2023/01/17 10:26:29;;;;;;;2.00;1.53;;;4.70;99.90;;;;;;5093376;28;20444;-72
2023/01/17 10:29:00;;;;;;;1.67;0.63;;;4.80;99.90;;;;;;5093556;28;20826;-73
2023/01/17 10:31:29;;;;;;;6.73;2.03;;;4.80;99.90;;;;;;5093269;28;20456;-73
2023/01/17 10:34:02;;;;;;;1.10;0.90;;;4.80;99.90;;;;;;5080675;28;20475;-73
2023/01/17 10:36:34;;;;;;;1.10;0.80;;;4.90;99.90;;;;;;5092834;28;20452;-72
2023/01/17 10:39:19;;;;;;;1.50;1.13;;;4.90;99.90;;;;;;5093395;28;20452;-73
2023/01/17 10:41:53;;;;;;;1.70;1.20;;;4.90;99.90;;;;;;5090804;28;20488;-73
2023/01/17 10:44:27;;;;;;;1.50;0.77;;;5.00;99.90;;;;;;5092251;28;20475;-74
2023/01/17 10:46:58;;;;;;;2.27;1.00;;;4.90;99.90;;;;;;5081686;28;20443;-74
2023/01/17 10:49:27;;;;;;;1.20;0.60;;;5.00;99.90;;;;;;5092839;28;20438;-73
2023/01/17 10:52:12;;;;;;;0.80;0.60;;;5.00;99.90;;;;;;5092887;28;20470;-74
2023/01/17 10:54:54;;;;;;;1.40;0.90;;;5.10;99.90;;;;;;5091566;28;20456;-74
2023/01/17 10:57:22;;;;;;;2.30;0.93;;;5.10;99.90;;;;;;5090378;28;20440;-74
2023/01/17 10:59:49;;;;;;;1.10;0.90;;;5.30;99.90;;;;;;5093578;28;20459;-74
2023/01/17 11:02:23;;;;;;;1.27;0.67;;;5.20;99.90;;;;;;5092507;28;20483;-72
2023/01/17 11:04:53;;;;;;;1.97;0.90;;;5.20;99.90;;;;;;5091722;28;20457;-73
2023/01/17 11:07:22;;;;;;;1.37;0.73;;;5.30;99.90;;;;;;5092658;28;20471;-72
2023/01/17 11:09:52;;;;;;;1.10;0.80;;;5.40;99.90;;;;;;5092980;28;20445;-73
2023/01/17 11:12:24;;;;;;;1.10;0.80;;;5.40;99.90;;;;;;5092329;28;20460;-73
2023/01/17 11:15:00;;;;;;;1.63;0.80;;;5.50;99.90;;;;;;5082245;28;20454;-73
2023/01/17 11:17:27;;;;;;;0.90;0.60;;;5.70;99.90;;;;;;5084124;28;20453;-72
2023/01/17 11:20:05;;;;;;;0.80;0.60;;;5.80;99.90;;;;;;5087456;28;20452;-73
2023/01/17 11:22:32;;;;;;;1.93;0.80;;;5.80;99.90;;;;;;5097358;28;20468;-72
2023/01/17 11:25:01;;;;;;;5.10;0.90;;;5.80;99.90;;;;;;5082954;28;20445;-73
2023/01/17 11:27:30;;;;;;;0.73;0.50;;;5.90;99.90;;;;;;5077381;28;20457;-73
2023/01/17 11:30:14;;;;;;;0.70;0.60;;;6.00;99.90;;;;;;5089573;28;20457;-73
2023/01/17 11:32:51;;;;;;;1.40;0.90;;;6.00;99.90;;;;;;5090346;28;20928;-73
2023/01/17 11:35:20;;;;;;;0.90;0.67;;;6.10;99.90;;;;;;5087839;28;20530;-72
2023/01/17 11:37:52;;;;;;;1.30;0.80;;;6.10;99.90;;;;;;5090113;28;20453;-72
2023/01/17 11:40:25;;;;;;;2.07;0.73;;;6.20;99.90;;;;;;5088886;28;20463;-73
2023/01/17 11:43:04;;;;;;;1.10;1.00;;;6.30;99.90;;;;;;5090028;28;20500;-73
2023/01/17 11:45:33;;;;;;;1.30;0.67;;;6.30;99.90;;;;;;5083391;28;20955;-75
2023/01/17 11:48:05;;;;;;;1.50;0.90;;;;;;;;;;5089609;28;20459;-78
2023/01/17 11:50:32;;;;;;;1.33;0.60;;;;;;;;;;5089252;28;20444;-74
2023/01/17 11:53:05;;;;;;;2.03;1.00;;;;;;;;;;5082200;28;20495;-74
2023/01/17 11:55:34;;;;;;;5.90;0.80;;;;;;;;;;5089834;28;20506;-75
2023/01/17 11:58:01;;;;;;;0.90;0.60;;;;;;;;;;5089784;28;20446;-75
2023/01/17 12:00:31;;;;;;;0.90;0.60;;;;;;;;;;5089119;28;20458;-75
2023/01/17 12:03:14;;;;;;;1.87;0.67;;;;;;;;;;5089628;28;20479;-75
2023/01/17 12:05:47;;;;;;;1.73;0.50;;;;;;;;;;5090345;28;20444;-75
2023/01/17 12:08:20;;;;;;;0.70;0.60;;;;;;;;;;5087148;28;20955;-74
2023/01/17 12:10:53;;;;;;;0.87;0.60;;;;;;;;;;5085744;28;20445;-76
2023/01/17 12:16:28;;;;;;;0.60;0.50;;;;;;;;;;5089658;28;20993;-74
2023/01/17 12:18:58;;;;;;;0.60;0.50;;;;;;;;;;5103010;28;20482;-74
2023/01/17 12:21:30;;;;;;;0.70;0.60;;;;;;;;;;5103081;28;20520;-74
2023/01/17 12:24:01;;;;;;;1.43;0.90;;;;;;;;;;5102844;28;20471;-74
2023/01/17 12:26:35;;;;;;;0.77;0.50;;;;;;;;;;5103770;28;20440;-74
2023/01/17 12:29:11;;;;;;;7.13;0.83;;;;;;;;;;5100866;28;20505;-75
2023/01/17 12:31:42;;;;;;;1.37;0.70;;;;;;;;;;5099616;28;20479;-74
2023/01/17 12:34:19;;;;;;;1.27;0.60;;;;;;;;;;5097528;28;20463;-75
2023/01/17 12:36:48;;;;;;;3.63;1.00;;;;;;;;;;5093179;28;21041;-74
2023/01/17 12:39:16;;;;;;;1.70;0.60;;;;;;;;;;5086117;28;20452;-76
2023/01/17 12:41:53;;;;;;;0.60;0.43;;;;;;;;;;5087048;28;20472;-74
2023/01/17 12:44:24;;;;;;;0.60;0.50;;;;;;;;;;5080887;28;20471;-75
2023/01/17 12:46:53;;;;;;;2.97;0.67;;;;;;;;;;5088703;28;20444;-75
2023/01/17 12:49:23;;;;;;;1.13;0.60;;;;;;;;;;5088256;28;20821;-74
2023/01/17 12:51:53;;;;;;;1.20;0.80;;;;;;;;;;5088946;28;20962;-74
2023/01/17 12:54:24;;;;;;;0.63;0.43;;;;;;;;;;5087979;28;20803;-75
2023/01/17 12:56:54;;;;;;;1.30;0.70;;;;;;;;;;5088896;28;20809;-75
2023/01/17 12:59:26;;;;;;;2.90;0.90;;;;;;;;;;5088209;28;20472;-75
2023/01/17 13:01:57;;;;;;;0.97;0.70;;;;;;;;;;5088332;28;20455;-75
2023/01/17 13:04:26;;;;;;;2.40;0.90;;;;;;;;;;5087689;28;20453;-75
2023/01/17 13:06:59;;;;;;;0.80;0.70;;;;;;;;;;5088617;28;20450;-75
2023/01/17 13:09:29;;;;;;;0.60;0.40;;;;;;;;;;5088242;28;20461;-73
2023/01/17 13:12:01;;;;;;;0.90;0.67;;;;;;;;;;5082940;28;20477;-75
2023/01/17 13:14:28;;;;;;;1.03;0.67;;;;;;;;;;5083708;28;20442;-75
2023/01/17 13:16:56;;;;;;;1.50;0.80;;;;;;;;;;5083245;28;20467;-74
2023/01/17 13:19:28;;;;;;;10.03;0.90;;;;;;;;;;5088109;28;20476;-74
2023/01/17 13:21:56;;;;;;;1.10;0.60;;;;;;;;;;5088564;28;20448;-75
2023/01/17 13:24:29;;;;;;;0.60;0.40;;;;;;;;;;5087544;28;20453;-73
2023/01/17 13:27:15;;;;;;;1.03;0.80;;;;;;;;;;5087981;28;20445;-75
2023/01/17 13:29:51;;;;;;;1.10;0.80;;;;;;;;;;5088049;28;20498;-74
2023/01/17 13:32:26;;;;;;;3.37;0.60;;;;;;;;;;5087888;28;20814;-75
2023/01/17 13:35:06;;;;;;;1.63;0.70;;;;;;;;;;5085772;28;20993;-75
2023/01/17 13:37:42;;;;;;;1.23;0.63;;;;;;;;;;5086842;28;20936;-77
2023/01/17 13:40:21;;;;;;;0.60;0.50;;;;;;;;;;5080911;28;20990;-76
2023/01/17 13:42:54;;;;;;;1.57;0.70;;;;;;;;;;5087852;28;20488;-76
2023/01/17 13:45:22;;;;;;;0.60;0.43;;;;;;;;;;5084601;28;20504;-77
2023/01/17 13:47:49;;;;;;;1.40;0.70;;;;;;;;;;5088080;28;20452;-76
2023/01/17 13:50:35;;;;;;;0.80;0.50;;;;;;;;;;5090868;28;20952;-76
2023/01/17 13:53:22;;;;;;;0.80;0.50;;;;;;;;;;5091436;28;20457;-77
2023/01/17 13:55:52;;;;;;;1.33;0.70;;;;;;;;;;5091977;28;20458;-74
2023/01/17 13:58:37;;;;;;;0.60;0.50;;;;;;;;;;5090707;28;20538;-74
2023/01/17 14:01:04;;;;;;;0.60;0.50;;;;;;;;;;5091336;28;20463;-74
2023/01/17 14:03:49;;;;;;;0.90;0.50;;;;;;;;;;5083038;28;21027;-75
2023/01/17 14:06:29;;;;;;;1.23;0.70;;;;;;;;;;5091059;28;20539;-73
2023/01/17 14:09:00;;;;;;;1.63;0.70;;;;;;;;;;5087024;28;20505;-74
2023/01/17 14:11:28;;;;;;;1.40;0.80;;;;;;;;;;5089826;28;20444;-75
2023/01/17 14:13:56;;;;;;;1.17;0.80;;;;;;;;;;5086968;28;20813;-75
2023/01/17 14:16:28;;;;;;;2.03;0.80;;;;;;;;;;5091158;28;20451;-75
2023/01/17 14:18:55;;;;;;;3.60;1.00;;;;;;;;;;5091503;28;20801;-75
2023/01/17 14:21:23;;;;;;;2.73;0.87;;;;;;;;;;5091325;28;20448;-75
2023/01/17 14:23:52;;;;;;;0.60;0.50;;;;;;;;;;5083206;28;20480;-75
2023/01/17 14:26:21;;;;;;;1.80;0.73;;;;;;;;;;5091179;28;20455;-74
2023/01/17 14:28:48;;;;;;;0.70;0.50;;;;;;;;;;5091427;28;20531;-75
2023/01/17 14:31:18;;;;;;;0.60;0.47;;;;;;;;;;5092159;28;20460;-72
2023/01/17 14:33:45;;;;;;;0.50;0.40;;;;;;;;;;5091586;28;20460;-75
2023/01/17 14:36:20;;;;;;;0.70;0.60;;;;;;;;;;5089766;28;20458;-75
2023/01/17 14:38:47;;;;;;;0.90;0.70;;;;;;;;;;5091433;28;20458;-75
2023/01/17 14:41:18;;;;;;;1.07;0.63;;;;;;;;;;5088073;28;20452;-74
2023/01/17 14:43:45;;;;;;;1.77;0.80;;;;;;;;;;5089646;28;20994;-75
2023/01/17 14:46:19;;;;;;;2.00;0.60;;;;;;;;;;5092584;28;20448;-74
2023/01/17 14:48:46;;;;;;;1.33;0.50;;;;;;;;;;5090211;28;20449;-75
2023/01/17 14:51:14;;;;;;;1.43;0.70;;;;;;;;;;5093612;28;20448;-72
2023/01/17 14:53:52;;;;;;;2.30;1.00;;;;;;;;;;5093114;28;20827;-76
2023/01/17 14:56:19;;;;;;;1.10;0.80;;;;;;;;;;5092924;28;20448;-73
2023/01/17 14:58:46;;;;;;;0.73;0.70;;;;;;;;;;5091301;28;20455;-70
2023/01/17 15:01:14;;;;;;;0.80;0.60;;;;;;;;;;5087892;28;20471;-73
2023/01/17 15:03:44;;;;;;;1.23;1.13;;;;;;;;;;5093239;28;20488;-75